Time,TemperatureF,DewpointF,PressureIn,WindDirection,WindDirectionDegrees,WindSpeedMPH,WindSpeedGustMPH,Humidity,HourlyPrecipIn,Conditions,Clouds,dailyrainin,SoftwareType,DateUTC
2013-05-07 00:00:00,48.5,48.0,29.98,NNE,26,0.0,-999.0,97,-99.99,,,0.00,weatherlink.com 1.10,2013-05-07 05:00:00,
2013-05-07 00:15:00,48.5,48.0,29.99,NNE,26,0.0,-999.0,97,-99.99,,,0.00,weatherlink.com 1.10,2013-05-07 05:15:00,
2013-05-07 00:30:00,48.5,48.0,29.98,NNE,26,0.0,-999.0,97,-99.99,,,0.00,weatherlink.com 1.10,2013-05-07 05:30:00,
2013-05-07 00:45:00,48.5,48.0,29.98,NNE,26,0.0,-999.0,97,-99.99,,,0.00,weatherlink.com 1.10,2013-05-07 05:45:00,
2013-05-07 01:00:00,48.5,48.0,29.98,NNE,26,0.0,-999.0,97,-99.99,,,0.00,weatherlink.com 1.10,2013-05-07 06:00:00,
2013-05-07 01:15:00,48.5,48.0,29.98,NNE,26,0.0,-999.0,97,-99.99,,,0.00,weatherlink.com 1.10,2013-05-07 06:15:00,
2013-05-07 01:30:00,48.7,48.0,29.98,NNE,26,0.0,-999.0,97,-99.99,,,0.00,weatherlink.com 1.10,2013-05-07 06:30:00,
2013-05-07 01:45:00,49.2,49.0,29.98,NNE,26,0.0,-999.0,98,-99.99,,,0.00,weatherlink.com 1.10,2013-05-07 06:45:00,
2013-05-07 02:00:00,49.1,48.0,29.97,NNE,26,0.0,-999.0,97,-99.99,,,0.00,weatherlink.com 1.10,2013-05-07 07:00:00,
2013-05-07 02:16:00,48.9,48.0,29.98,NNE,26,0.0,-999.0,97,-99.99,,,0.00,weatherlink.com 1.10,2013-05-07 07:16:00,
2013-05-07 02:31:00,49.0,48.0,29.98,WNW,297,0.0,-999.0,97,-99.99,,,0.00,weatherlink.com 1.10,2013-05-07 07:31:00,
2013-05-07 02:46:00,48.8,48.0,29.97,NNE,19,2.0,-999.0,97,-99.99,,,0.00,weatherlink.com 1.10,2013-05-07 07:46:00,
2013-05-07 03:01:00,48.5,48.0,29.97,NNE,19,0.0,-999.0,97,-99.99,,,0.00,weatherlink.com 1.10,2013-05-07 08:01:00,
2013-05-07 03:16:00,47.4,47.0,29.98,NNE,19,0.0,-999.0,97,-99.99,,,0.00,weatherlink.com 1.10,2013-05-07 08:16:00,
2013-05-07 03:31:00,47.0,46.0,29.98,NNE,19,0.0,-999.0,97,-99.99,,,0.00,weatherlink.com 1.10,2013-05-07 08:31:00,
2013-05-07 03:46:00,47.8,47.0,29.98,NNE,19,0.0,-999.0,97,-99.99,,,0.00,weatherlink.com 1.10,2013-05-07 08:46:00,
2013-05-07 04:01:00,48.1,48.0,29.98,NNE,19,0.0,-999.0,98,-99.99,,,0.00,weatherlink.com 1.10,2013-05-07 09:01:00,
2013-05-07 04:16:00,48.1,48.0,29.99,NNE,19,0.0,-999.0,98,-99.99,,,0.00,weatherlink.com 1.10,2013-05-07 09:16:00,
2013-05-07 04:31:00,48.3,48.0,29.99,NNE,29,3.0,-999.0,98,-99.99,,,0.00,weatherlink.com 1.10,2013-05-07 09:31:00,
2013-05-07 04:46:00,48.3,48.0,29.99,NE,40,0.0,-999.0,98,-99.99,,,0.00,weatherlink.com 1.10,2013-05-07 09:46:00,
2013-05-07 05:01:00,48.3,48.0,29.99,ENE,60,0.0,-999.0,98,-99.99,,,0.00,weatherlink.com 1.10,2013-05-07 10:01:00,
2013-05-07 05:16:00,47.9,47.0,29.99,East,97,2.0,-999.0,98,-99.99,,,0.00,weatherlink.com 1.10,2013-05-07 10:16:00,
2013-05-07 05:31:00,47.6,47.0,29.99,ESE,113,1.0,-999.0,98,-99.99,,,0.00,weatherlink.com 1.10,2013-05-07 10:31:00,
2013-05-07 05:46:00,47.4,47.0,30.00,ESE,113,0.0,-999.0,98,-99.99,,,0.00,weatherlink.com 1.10,2013-05-07 10:46:00,
2013-05-07 06:01:00,47.6,47.0,30.01,SSW,205,3.0,-999.0,98,-99.99,,,0.00,weatherlink.com 1.10,2013-05-07 11:01:00,
2013-05-07 06:16:00,47.7,47.0,30.02,NW,322,2.0,-999.0,98,-99.99,,,0.00,weatherlink.com 1.10,2013-05-07 11:16:00,
2013-05-07 06:31:00,47.7,47.0,30.03,NNW,333,2.0,-999.0,98,-99.99,,,0.00,weatherlink.com 1.10,2013-05-07 11:31:00,
2013-05-07 06:46:00,48.1,48.0,30.03,NNE,26,2.0,-999.0,98,-99.99,,,0.00,weatherlink.com 1.10,2013-05-07 11:46:00,
2013-05-07 07:01:00,48.5,48.0,30.04,NNE,26,0.0,-999.0,98,-99.99,,,0.00,weatherlink.com 1.10,2013-05-07 12:01:00,
2013-05-07 07:16:00,48.7,48.0,30.05,NNE,20,3.0,-999.0,98,-99.99,,,0.00,weatherlink.com 1.10,2013-05-07 12:16:00,
2013-05-07 07:31:00,48.6,48.0,30.06,NE,41,4.0,-999.0,98,-99.99,,,0.00,weatherlink.com 1.10,2013-05-07 12:31:00,
2013-05-07 07:46:00,48.8,48.0,30.06,NNE,19,2.0,-999.0,98,-99.99,,,0.00,weatherlink.com 1.10,2013-05-07 12:46:00,
2013-05-07 08:01:00,49.1,49.0,30.07,NNE,25,0.0,-999.0,98,-99.99,,,0.00,weatherlink.com 1.10,2013-05-07 13:01:00,
2013-05-07 08:16:00,49.4,49.0,30.07,NNE,25,0.0,-999.0,98,-99.99,,,0.00,weatherlink.com 1.10,2013-05-07 13:16:00,
2013-05-07 08:31:00,49.6,49.0,30.07,NNW,333,3.0,-999.0,98,-99.99,,,0.00,weatherlink.com 1.10,2013-05-07 13:31:00,
2013-05-07 08:46:00,49.9,49.0,30.07,NE,40,2.0,-999.0,98,-99.99,,,0.00,weatherlink.com 1.10,2013-05-07 13:46:00,
2013-05-07 09:01:00,50.3,50.0,30.07,NE,40,2.0,-999.0,98,-99.99,,,0.00,weatherlink.com 1.10,2013-05-07 14:01:00,
2013-05-07 09:16:00,51.8,51.0,30.06,ENE,75,0.0,-999.0,97,-99.99,,,0.00,weatherlink.com 1.10,2013-05-07 14:16:00,
2013-05-07 09:31:00,53.2,51.0,30.06,ENE,64,0.0,-999.0,93,-99.99,,,0.00,weatherlink.com 1.10,2013-05-07 14:31:00,
2013-05-07 09:46:00,54.3,52.0,30.06,NE,55,3.0,-999.0,90,-99.99,,,0.00,weatherlink.com 1.10,2013-05-07 14:46:00,
2013-05-07 10:01:00,54.4,51.0,30.07,NE,38,0.0,-999.0,88,-99.99,,,0.00,weatherlink.com 1.10,2013-05-07 15:01:00,
2013-05-07 10:16:00,55.0,51.0,30.08,SW,223,0.0,-999.0,86,-99.99,,,0.00,weatherlink.com 1.10,2013-05-07 15:16:00,
2013-05-07 10:31:00,55.7,51.0,30.08,SW,226,0.0,-999.0,85,-99.99,,,0.00,weatherlink.com 1.10,2013-05-07 15:31:00,
2013-05-07 10:46:00,56.0,51.0,30.08,NNE,20,4.0,-999.0,84,-99.99,,,0.00,weatherlink.com 1.10,2013-05-07 15:46:00,
2013-05-07 11:01:00,58.2,52.0,30.08,NNE,26,0.0,-999.0,79,-99.99,,,0.00,weatherlink.com 1.10,2013-05-07 16:01:00,
2013-05-07 11:16:00,59.6,53.0,30.08,SW,215,0.0,-999.0,78,-99.99,,,0.00,weatherlink.com 1.10,2013-05-07 16:16:00,
2013-05-07 11:31:00,59.3,53.0,30.07,SW,234,4.0,-999.0,80,-99.99,,,0.00,weatherlink.com 1.10,2013-05-07 16:31:00,
2013-05-07 11:46:00,59.2,52.0,30.08,WSW,244,2.0,-999.0,77,-99.99,,,0.00,weatherlink.com 1.10,2013-05-07 16:46:00,
2013-05-07 12:01:00,60.2,52.0,30.07,SW,227,1.0,-999.0,75,-99.99,,,0.00,weatherlink.com 1.10,2013-05-07 17:01:00,
2013-05-07 12:16:00,61.0,53.0,30.07,North,355,0.0,-999.0,75,-99.99,,,0.00,weatherlink.com 1.10,2013-05-07 17:16:00,
2013-05-07 12:31:00,61.6,53.0,30.07,West,272,4.0,-999.0,73,-99.99,,,0.00,weatherlink.com 1.10,2013-05-07 17:31:00,
2013-05-07 12:46:00,62.2,52.0,30.07,South,171,0.0,-999.0,69,-99.99,,,0.00,weatherlink.com 1.10,2013-05-07 17:46:00,
2013-05-07 13:01:00,62.3,53.0,30.07,WSW,254,6.0,-999.0,72,-99.99,,,0.00,weatherlink.com 1.10,2013-05-07 18:01:00,
2013-05-07 13:16:00,63.1,53.0,30.07,SSW,210,2.0,-999.0,69,-99.99,,,0.00,weatherlink.com 1.10,2013-05-07 18:16:00,
2013-05-07 13:32:00,63.3,53.0,30.06,WNW,296,5.0,-999.0,68,-99.99,,,0.00,weatherlink.com 1.10,2013-05-07 18:32:00,
2013-05-07 13:47:00,64.2,48.0,30.06,NNE,21,5.0,-999.0,56,-99.99,,,0.00,weatherlink.com 1.10,2013-05-07 18:47:00,
2013-05-07 14:02:00,64.7,50.0,30.06,SE,133,1.0,-999.0,59,-99.99,,,0.00,weatherlink.com 1.10,2013-05-07 19:02:00,
2013-05-07 14:17:00,66.3,50.0,30.06,WNW,296,0.0,-999.0,57,-99.99,,,0.00,weatherlink.com 1.10,2013-05-07 19:17:00,
2013-05-07 14:32:00,66.3,50.0,30.05,SW,236,0.0,-999.0,56,-99.99,,,0.00,weatherlink.com 1.10,2013-05-07 19:32:00,
2013-05-07 14:47:00,65.9,51.0,30.05,NNW,327,0.0,-999.0,60,-99.99,,,0.00,weatherlink.com 1.10,2013-05-07 19:47:00,
2013-05-07 15:02:00,65.0,52.0,30.05,WNW,287,0.0,-999.0,62,-99.99,,,0.00,weatherlink.com 1.10,2013-05-07 20:02:00,
2013-05-07 15:17:00,66.7,53.0,30.04,SW,234,8.0,-999.0,62,-99.99,,,0.00,weatherlink.com 1.10,2013-05-07 20:17:00,
2013-05-07 15:32:00,66.4,54.0,30.04,West,267,1.0,-999.0,65,-99.99,,,0.00,weatherlink.com 1.10,2013-05-07 20:32:00,
2013-05-07 15:47:00,66.0,52.0,30.04,WNW,301,0.0,-999.0,62,-99.99,,,0.00,weatherlink.com 1.10,2013-05-07 20:47:00,
2013-05-07 16:02:00,66.3,52.0,30.04,West,275,0.0,-999.0,60,-99.99,,,0.00,weatherlink.com 1.10,2013-05-07 21:02:00,
2013-05-07 16:17:00,66.3,53.0,30.04,WNW,283,5.0,-999.0,62,-99.99,,,0.00,weatherlink.com 1.10,2013-05-07 21:17:00,
2013-05-07 16:32:00,67.2,53.0,30.04,NW,321,5.0,-999.0,60,-99.99,,,0.00,weatherlink.com 1.10,2013-05-07 21:32:00,
2013-05-07 16:47:00,67.4,52.0,30.04,NNW,343,0.0,-999.0,58,-99.99,,,0.00,weatherlink.com 1.10,2013-05-07 21:47:00,
2013-05-07 17:02:00,67.2,52.0,30.05,WSW,248,3.0,-999.0,59,-99.99,,,0.00,weatherlink.com 1.10,2013-05-07 22:02:00,
2013-05-07 17:17:00,67.4,52.0,30.04,NNW,344,0.0,-999.0,58,-99.99,,,0.00,weatherlink.com 1.10,2013-05-07 22:17:00,
2013-05-07 17:32:00,67.3,52.0,30.04,NW,324,0.0,-999.0,58,-99.99,,,0.00,weatherlink.com 1.10,2013-05-07 22:32:00,
2013-05-07 17:47:00,67.2,51.0,30.04,North,355,6.0,-999.0,57,-99.99,,,0.00,weatherlink.com 1.10,2013-05-07 22:47:00,
2013-05-07 18:02:00,67.1,52.0,30.05,WNW,302,0.0,-999.0,59,-99.99,,,0.00,weatherlink.com 1.10,2013-05-07 23:02:00,
2013-05-07 18:17:00,66.8,52.0,30.05,NW,313,7.0,-999.0,60,-99.99,,,0.00,weatherlink.com 1.10,2013-05-07 23:17:00,
2013-05-07 18:32:00,65.6,52.0,30.05,NW,304,0.0,-999.0,62,-99.99,,,0.00,weatherlink.com 1.10,2013-05-07 23:32:00,
2013-05-07 18:47:00,64.7,53.0,30.05,NW,313,0.0,-999.0,65,-99.99,,,0.00,weatherlink.com 1.10,2013-05-07 23:47:00,
2013-05-07 19:02:00,64.0,53.0,30.05,NW,313,0.0,-999.0,68,-99.99,,,0.00,weatherlink.com 1.10,2013-05-08 00:02:00,
2013-05-07 19:17:00,63.2,53.0,30.05,NW,313,0.0,-999.0,70,-99.99,,,0.00,weatherlink.com 1.10,2013-05-08 00:17:00,
2013-05-07 19:32:00,62.8,53.0,30.05,NW,313,0.0,-999.0,70,-99.99,,,0.00,weatherlink.com 1.10,2013-05-08 00:32:00,
2013-05-07 19:47:00,61.9,53.0,30.06,NW,313,0.0,-999.0,73,-99.99,,,0.00,weatherlink.com 1.10,2013-05-08 00:47:00,
2013-05-07 20:02:00,60.6,54.0,30.06,NW,313,0.0,-999.0,78,-99.99,,,0.00,weatherlink.com 1.10,2013-05-08 01:02:00,
2013-05-07 20:17:00,59.6,53.0,30.06,NW,313,0.0,-999.0,78,-99.99,,,0.00,weatherlink.com 1.10,2013-05-08 01:17:00,
2013-05-07 20:32:00,60.1,53.0,30.06,NW,313,0.0,-999.0,77,-99.99,,,0.00,weatherlink.com 1.10,2013-05-08 01:32:00,
2013-05-07 20:47:00,60.3,53.0,30.07,NW,313,0.0,-999.0,76,-99.99,,,0.00,weatherlink.com 1.10,2013-05-08 01:47:00,
2013-05-07 21:02:00,58.7,53.0,30.07,NW,313,0.0,-999.0,82,-99.99,,,0.00,weatherlink.com 1.10,2013-05-08 02:02:00,
2013-05-07 21:17:00,56.6,53.0,30.07,NW,313,0.0,-999.0,86,-99.99,,,0.00,weatherlink.com 1.10,2013-05-08 02:17:00,
2013-05-07 21:32:00,55.3,52.0,30.07,NW,313,0.0,-999.0,89,-99.99,,,0.00,weatherlink.com 1.10,2013-05-08 02:32:00,
2013-05-07 21:48:00,54.3,52.0,30.08,NW,313,0.0,-999.0,90,-99.99,,,0.00,weatherlink.com 1.10,2013-05-08 02:48:00,
2013-05-07 22:03:00,53.7,51.0,30.08,NW,313,0.0,-999.0,91,-99.99,,,0.00,weatherlink.com 1.10,2013-05-08 03:03:00,
2013-05-07 22:18:00,53.2,51.0,30.08,NW,313,0.0,-999.0,92,-99.99,,,0.00,weatherlink.com 1.10,2013-05-08 03:18:00,
2013-05-07 22:33:00,52.5,51.0,30.08,NW,313,0.0,-999.0,93,-99.99,,,0.00,weatherlink.com 1.10,2013-05-08 03:33:00,
2013-05-07 22:48:00,52.2,50.0,30.08,NW,313,0.0,-999.0,93,-99.99,,,0.00,weatherlink.com 1.10,2013-05-08 03:48:00,
2013-05-07 23:03:00,51.9,50.0,30.08,NW,313,0.0,-999.0,94,-99.99,,,0.00,weatherlink.com 1.10,2013-05-08 04:03:00,
2013-05-07 23:18:00,51.9,50.0,30.09,NW,313,0.0,-999.0,94,-99.99,,,0.00,weatherlink.com 1.10,2013-05-08 04:18:00,
2013-05-07 23:33:00,51.4,50.0,30.08,NW,313,0.0,-999.0,94,-99.99,,,0.00,weatherlink.com 1.10,2013-05-08 04:33:00,
2013-05-07 23:48:00,51.1,50.0,30.08,NW,313,0.0,-999.0,94,-99.99,,,0.00,weatherlink.com 1.10,2013-05-08 04:48:00,